Aeroporto :
LOGIN :

Iscrizione | Disclaimer

   EN    FR    IT 

 










Sommario :    VFR   VFR Marginale   IFR   IFR Intensivo   IFR Molto Intensivo
Visibilità : 
Base nubi : 
>= 8 km
>= 3000ft
5 / 8 km
1000 / 3000 ft
1500m / 5 km
500 / 1000 ft
800 / 1500m
200 / 500 ft
< 800m
< 200 ft
Simboli :   Temporali  Nebbia  Neve Forte  Precipitazioni Forti  Vento > 20 kt
SIGMETs :   Varie  Temporali  Ghiacco  Turbolenza  Onda orograficha  Ceneri Vulcaniche






- Altitudine del aeroporto : 978 ft
- Codice IATA : LNZ


LOWL - Linz

ULTIMO METAR :
  • 251550Z 25014KT 9999 FEW050 BKN200 12/03 Q1002 NOSIG

METARs OBSOLETI :
  • 251520Z 25014KT 9999 FEW060 BKN200 12/03 Q1002 NOSIG
  • 251450Z 26012KT 9999 FEW060 BKN200 12/03 Q1002 NOSIG
  • 251420Z 27007KT 240V330 9999 FEW060 BKN200 12/04 Q1002 NOSIG
  • 251350Z VRB01KT 9999 FEW060 BKN220 09/06 Q1003 BECMG 27011KT
  • 251320Z VRB01KT 9999 FEW060 BKN220 09/05 Q1003 BECMG 27011KT

TAF TAF LOWL
Valido dal 25 a 12 ore il 26 a 12 ore UTC


251115Z 2512/2612 25005KT 9999 FEW040 SCT200 TX12/2515Z TN04/2606Z
TEMPO 2512/2605 28013KT
PROB30
TEMPO 2519/2603 28015KT 6000 SHRA FEW015 BKN030
TEMPO 2605/2612 28015G30KT



MetMap, La meteo Aeronautica in un colpo d'occhio ! - Copyright ORBIFLY Dicembre 2007 - Disclaimer

ORBIFLY MET'MAP TEAM :

Programmazione e sviluppo : Alexandra Zaïnal
Concezione : Baudouin d'Aumeries
Aiuto per la programmazione : Marc-Olivier Méhu
Supporto tecnico e logistico : Manuel Goepfert
Aiuto per la traduzione : Arnaldo La Scala

Contatto : metmap@orbifly.com




FONTI E CREDITI :

   NOAA